Time;durP1;ratioP1;P1;durP2;ratioP2;P2;SDS_P1;SDS_P2;PMS_P1;PMS_P2;Temp;Humidity;BMP_temperature;BMP_pressure;BME280_temperature;BME280_humidity;BME280_pressure;Samples;Min_cycle;Max_cycle;Signal;HPM_P1;HPM_P2
2022/09/07 00:01:11;;;;;;;3.88;1.30;;;25.60;96.70;;;;;;5025919;28;20125;-77
2022/09/07 00:03:39;;;;;;;4.10;1.60;;;25.60;96.70;;;;;;5043438;28;20782;-77
2022/09/07 00:06:10;;;;;;;5.22;1.80;;;25.50;96.70;;;;;;5047053;28;20053;-78
2022/09/07 00:08:42;;;;;;;2.92;2.00;;;25.50;96.70;;;;;;5042353;28;20103;-78
2022/09/07 00:11:12;;;;;;;5.38;2.15;;;25.30;96.70;;;;;;5045627;28;20062;-78
2022/09/07 00:13:41;;;;;;;5.47;1.70;;;25.40;96.70;;;;;;5043418;28;20049;-77
2022/09/07 00:16:12;;;;;;;2.13;1.70;;;25.40;96.70;;;;;;5038085;28;20100;-78
2022/09/07 00:18:41;;;;;;;3.50;2.03;;;25.30;96.70;;;;;;5037631;28;20060;-78
2022/09/07 00:21:15;;;;;;;4.70;1.70;;;25.40;96.70;;;;;;5028851;28;20051;-77
2022/09/07 00:23:46;;;;;;;5.38;1.63;;;25.40;96.70;;;;;;5043776;28;20617;-78
2022/09/07 00:26:17;;;;;;;2.65;1.67;;;25.30;96.70;;;;;;5044179;28;20072;-77
2022/09/07 00:28:46;;;;;;;2.78;1.70;;;25.30;96.70;;;;;;5022841;28;20406;-78
2022/09/07 00:31:16;;;;;;;5.65;1.67;;;25.30;96.70;;;;;;5028126;28;20053;-78
2022/09/07 00:33:46;;;;;;;2.63;1.70;;;25.30;96.70;;;;;;5033197;28;20073;-78
2022/09/07 00:36:15;;;;;;;3.22;1.67;;;25.30;96.70;;;;;;5041249;28;20494;-78
2022/09/07 00:38:45;;;;;;;4.30;1.90;;;25.30;96.70;;;;;;5043751;28;20037;-78
2022/09/07 00:41:15;;;;;;;2.67;1.60;;;25.30;96.70;;;;;;5045986;28;20044;-79
2022/09/07 00:43:45;;;;;;;3.78;1.50;;;25.30;96.70;;;;;;5042266;28;20095;-77
2022/09/07 00:46:15;;;;;;;3.30;1.90;;;25.30;96.70;;;;;;5043771;28;20135;-77
2022/09/07 00:48:48;;;;;;;4.32;1.25;;;25.20;96.70;;;;;;5043395;28;20522;-79
2022/09/07 00:51:20;;;;;;;1.85;1.27;;;25.20;96.70;;;;;;5042243;28;20671;-79
2022/09/07 00:53:56;;;;;;;2.35;1.42;;;25.20;96.70;;;;;;5036911;28;20072;-79
2022/09/07 00:56:28;;;;;;;5.35;2.10;;;25.20;96.70;;;;;;5040608;28;20079;-79
2022/09/07 00:58:57;;;;;;;5.82;2.22;;;25.00;96.70;;;;;;5042641;28;20133;-78
2022/09/07 01:01:26;;;;;;;6.72;2.22;;;25.00;96.70;;;;;;5043319;28;20041;-78
2022/09/07 01:03:58;;;;;;;5.65;1.83;;;24.90;96.70;;;;;;5045443;28;20045;-79
2022/09/07 01:06:29;;;;;;;6.43;1.80;;;24.90;96.70;;;;;;5041134;28;20053;-78
2022/09/07 01:09:03;;;;;;;4.32;1.75;;;24.80;96.70;;;;;;5044805;28;20077;-78
2022/09/07 01:11:35;;;;;;;4.45;2.17;;;24.90;96.70;;;;;;5043402;28;20045;-78
2022/09/07 01:14:08;;;;;;;4.13;1.70;;;24.90;96.70;;;;;;5037345;28;20132;-80
2022/09/07 01:16:47;;;;;;;3.45;1.77;;;24.90;96.70;;;;;;5041340;28;20061;-78
2022/09/07 01:19:52;;;;;;;4.88;1.40;;;24.70;96.70;;;;;;5045632;28;20053;-77
2022/09/07 01:22:48;;;;;;;5.72;1.98;;;24.60;96.70;;;;;;5037333;28;20055;-78
2022/09/07 01:25:26;;;;;;;2.25;1.52;;;24.60;96.70;;;;;;5039887;28;20045;-77
2022/09/07 01:28:09;;;;;;;5.38;1.48;;;24.60;96.70;;;;;;5028023;28;20061;-78
2022/09/07 01:30:40;;;;;;;2.05;1.35;;;24.40;96.70;;;;;;5041985;28;20532;-80
2022/09/07 01:33:26;;;;;;;3.95;1.88;;;24.40;96.70;;;;;;5044013;28;20052;-78
2022/09/07 01:36:04;;;;;;;4.32;2.03;;;24.30;96.70;;;;;;5022268;28;20053;-78
2022/09/07 01:38:38;;;;;;;2.42;1.90;;;24.30;96.70;;;;;;5039684;28;20045;-78
2022/09/07 01:41:13;;;;;;;4.25;1.98;;;24.30;96.70;;;;;;5039592;28;20077;-79
2022/09/07 01:43:51;;;;;;;6.28;2.30;;;24.40;96.70;;;;;;5034055;28;20049;-78
2022/09/07 01:46:25;;;;;;;9.60;2.05;;;24.40;96.70;;;;;;5040216;28;20049;-78
2022/09/07 01:48:59;;;;;;;5.10;2.00;;;24.40;96.70;;;;;;5042711;28;20499;-78
2022/09/07 01:51:31;;;;;;;6.50;2.25;;;24.30;96.70;;;;;;5028481;28;20124;-78
2022/09/07 01:54:08;;;;;;;4.32;2.03;;;24.50;96.70;;;;;;5040730;28;20055;-78
2022/09/07 01:56:40;;;;;;;4.38;2.22;;;24.50;96.70;;;;;;5044547;28;20133;-78
2022/09/07 01:59:16;;;;;;;3.72;2.55;;;24.40;96.70;;;;;;5039406;28;20045;-79
2022/09/07 02:01:49;;;;;;;5.10;2.17;;;24.30;96.70;;;;;;5039977;28;20051;-78
2022/09/07 02:04:22;;;;;;;4.22;2.30;;;24.30;96.70;;;;;;5044207;28;20049;-77
2022/09/07 02:06:57;;;;;;;4.68;1.70;;;24.30;96.70;;;;;;5042560;28;20135;-79
2022/09/07 02:09:31;;;;;;;7.30;2.38;;;24.30;96.70;;;;;;5042479;28;20160;-78
2022/09/07 02:12:05;;;;;;;2.85;1.60;;;24.30;96.70;;;;;;5034881;28;20072;-77
2022/09/07 02:14:38;;;;;;;4.25;1.80;;;24.30;96.70;;;;;;5042591;28;20053;-78
2022/09/07 02:17:10;;;;;;;4.97;1.80;;;24.40;96.70;;;;;;5042520;28;20494;-77
2022/09/07 02:19:44;;;;;;;7.80;2.25;;;24.40;96.70;;;;;;5036933;28;20084;-76
2022/09/07 02:22:15;;;;;;;5.63;2.08;;;24.30;96.70;;;;;;5035351;28;20043;-77
2022/09/07 02:24:47;;;;;;;5.55;2.10;;;24.30;96.70;;;;;;5038632;28;20063;-78
2022/09/07 02:27:20;;;;;;;4.00;2.15;;;24.20;96.70;;;;;;5042723;28;20059;-77
2022/09/07 02:29:51;;;;;;;3.55;1.90;;;24.30;96.70;;;;;;5044180;28;20072;-78
2022/09/07 02:32:19;;;;;;;4.13;1.60;;;24.30;96.70;;;;;;5042552;28;20114;-78
2022/09/07 02:34:48;;;;;;;2.63;1.63;;;24.40;96.70;;;;;;5042732;28;20051;-78
2022/09/07 02:37:19;;;;;;;5.03;1.95;;;24.50;96.70;;;;;;5043457;28;20057;-79
2022/09/07 02:39:48;;;;;;;4.28;1.65;;;24.40;96.70;;;;;;5042623;28;20043;-78
2022/09/07 02:42:16;;;;;;;3.60;1.45;;;24.40;96.70;;;;;;5039331;28;20041;-77
2022/09/07 02:44:45;;;;;;;3.63;1.67;;;24.40;96.70;;;;;;5041667;28;20525;-77
2022/09/07 02:47:25;;;;;;;6.72;1.65;;;24.30;96.70;;;;;;5040756;28;20098;-78
2022/09/07 02:50:27;;;;;;;4.53;1.60;;;24.30;96.70;;;;;;5042237;28;20049;-77
2022/09/07 02:53:11;;;;;;;4.03;1.90;;;24.20;96.70;;;;;;5038408;28;20055;-78
2022/09/07 02:55:53;;;;;;;4.50;1.80;;;24.20;96.70;;;;;;5041599;28;20048;-78
2022/09/07 02:58:31;;;;;;;3.88;1.38;;;24.10;96.70;;;;;;5040412;28;20041;-78
2022/09/07 03:01:07;;;;;;;4.47;1.52;;;24.20;96.70;;;;;;5033602;28;20048;-77
2022/09/07 03:03:45;;;;;;;3.10;1.65;;;24.20;96.70;;;;;;5042695;28;20094;-77
2022/09/07 03:06:20;;;;;;;4.38;1.73;;;24.10;96.70;;;;;;5043331;28;20048;-77
2022/09/07 03:08:53;;;;;;;4.03;1.92;;;24.00;96.70;;;;;;5042331;28;20037;-78
2022/09/07 03:11:22;;;;;;;3.47;2.13;;;24.00;96.70;;;;;;5042058;28;20540;-78
2022/09/07 03:13:50;;;;;;;3.28;1.80;;;23.90;96.70;;;;;;5043804;28;20041;-78
2022/09/07 03:16:18;;;;;;;2.15;1.80;;;23.80;96.70;;;;;;5042610;28;20441;-78
2022/09/07 03:18:49;;;;;;;2.55;1.77;;;23.80;96.70;;;;;;5043604;28;20122;-77
2022/09/07 03:21:17;;;;;;;2.88;1.80;;;23.80;96.70;;;;;;5024908;28;20061;-78
2022/09/07 03:23:45;;;;;;;3.75;1.65;;;23.90;96.70;;;;;;5046036;28;20053;-77
2022/09/07 03:26:23;;;;;;;2.90;1.42;;;23.90;96.70;;;;;;5041403;28;20049;-78
2022/09/07 03:28:51;;;;;;;4.68;1.23;;;23.90;96.70;;;;;;5043426;28;20392;-78
2022/09/07 03:31:20;;;;;;;4.72;1.65;;;23.90;96.70;;;;;;5044451;28;20041;-77
2022/09/07 03:33:49;;;;;;;2.22;1.92;;;24.00;96.70;;;;;;5049631;28;20053;-77
2022/09/07 03:36:18;;;;;;;3.75;1.50;;;24.00;96.70;;;;;;5046036;28;20045;-78
2022/09/07 03:38:46;;;;;;;5.15;2.42;;;24.10;96.70;;;;;;5046660;28;20135;-77
2022/09/07 03:41:14;;;;;;;4.43;1.58;;;24.10;96.70;;;;;;5037406;28;20032;-78
2022/09/07 03:43:42;;;;;;;3.90;1.38;;;24.20;96.70;;;;;;5043499;28;20045;-77
2022/09/07 03:46:10;;;;;;;2.63;1.42;;;24.10;96.70;;;;;;5042849;28;20053;-78
2022/09/07 03:48:39;;;;;;;4.38;1.40;;;24.00;96.70;;;;;;5021158;28;20053;-77
2022/09/07 03:51:09;;;;;;;5.63;1.75;;;24.00;96.70;;;;;;5027520;28;20037;-79
2022/09/07 03:53:39;;;;;;;3.35;1.70;;;23.80;96.70;;;;;;5027489;28;20148;-78
2022/09/07 03:56:10;;;;;;;3.90;1.77;;;23.70;96.70;;;;;;5045346;28;20600;-77
2022/09/07 03:58:38;;;;;;;6.40;1.95;;;23.80;96.70;;;;;;5028236;28;20073;-77
2022/09/07 04:01:08;;;;;;;3.83;1.80;;;23.70;96.70;;;;;;5036383;28;20085;-78
2022/09/07 04:03:37;;;;;;;7.43;1.95;;;23.70;96.70;;;;;;5044794;28;20064;-80
2022/09/07 04:06:05;;;;;;;3.72;1.60;;;23.70;96.70;;;;;;5041149;28;20561;-78
2022/09/07 04:08:36;;;;;;;6.25;1.85;;;23.70;96.70;;;;;;5042731;28;20040;-78
2022/09/07 04:11:06;;;;;;;5.40;1.92;;;23.70;96.70;;;;;;5044189;28;20049;-79
2022/09/07 04:13:35;;;;;;;5.82;1.88;;;23.60;96.70;;;;;;5035193;28;20525;-78
2022/09/07 04:16:10;;;;;;;3.75;1.52;;;23.60;96.70;;;;;;5046531;28;20037;-78
2022/09/07 04:18:38;;;;;;;7.35;2.30;;;23.60;96.70;;;;;;5044224;28;20045;-78
2022/09/07 04:21:07;;;;;;;5.18;2.22;;;23.50;96.70;;;;;;5028871;28;20429;-78
2022/09/07 04:23:38;;;;;;;3.97;1.73;;;23.50;96.70;;;;;;5044274;28;20079;-77
2022/09/07 04:26:13;;;;;;;3.72;2.15;;;23.60;96.70;;;;;;5046540;28;20049;-78
2022/09/07 04:28:41;;;;;;;4.88;2.15;;;23.50;96.70;;;;;;5042252;28;20453;-78
2022/09/07 04:31:09;;;;;;;3.72;2.30;;;23.60;96.70;;;;;;5046001;28;20088;-78
2022/09/07 04:33:37;;;;;;;8.27;3.20;;;23.50;96.70;;;;;;5044289;28;20052;-78
2022/09/07 04:36:06;;;;;;;7.18;4.53;;;23.60;96.70;;;;;;5045391;28;20041;-78
2022/09/07 04:38:34;;;;;;;5.25;4.30;;;23.50;96.70;;;;;;5026934;28;20057;-78
2022/09/07 04:41:07;;;;;;;7.13;4.07;;;23.60;96.70;;;;;;5039242;28;20040;-78
2022/09/07 04:43:35;;;;;;;7.20;4.28;;;23.60;96.70;;;;;;5040289;28;20183;-78
2022/09/07 04:46:04;;;;;;;8.45;3.90;;;23.70;96.70;;;;;;5044141;28;20049;-78
2022/09/07 04:48:33;;;;;;;8.57;3.45;;;23.70;96.70;;;;;;5022851;28;20049;-80
2022/09/07 04:51:05;;;;;;;6.82;3.10;;;23.80;96.70;;;;;;5044060;28;20045;-78
2022/09/07 04:53:34;;;;;;;11.32;3.53;;;23.60;96.70;;;;;;5043358;28;20063;-78
2022/09/07 04:56:04;;;;;;;5.80;3.63;;;23.60;96.70;;;;;;5045399;28;20083;-78
2022/09/07 04:58:33;;;;;;;6.70;3.30;;;23.70;96.70;;;;;;5036877;28;20049;-78
2022/09/07 05:01:01;;;;;;;8.77;3.22;;;23.70;96.70;;;;;;5043131;28;20578;-78
2022/09/07 05:03:30;;;;;;;3.35;2.80;;;23.70;96.70;;;;;;5036399;28;20440;-78
2022/09/07 05:06:00;;;;;;;8.43;2.47;;;23.70;96.70;;;;;;5043575;28;20053;-77
2022/09/07 05:08:28;;;;;;;4.32;2.30;;;23.70;96.70;;;;;;5041402;28;20560;-78
2022/09/07 05:10:57;;;;;;;5.05;2.28;;;23.60;96.70;;;;;;5042977;28;20055;-77
2022/09/07 05:13:29;;;;;;;6.30;2.15;;;23.60;96.70;;;;;;5044344;28;20111;-77
2022/09/07 05:15:57;;;;;;;6.82;2.28;;;23.60;96.70;;;;;;5035376;28;20041;-77
2022/09/07 05:18:26;;;;;;;5.88;2.05;;;23.60;96.70;;;;;;5043404;28;20055;-77
2022/09/07 05:20:54;;;;;;;4.18;1.73;;;23.70;96.70;;;;;;5043339;28;20095;-77
2022/09/07 05:23:23;;;;;;;6.70;2.15;;;23.70;96.70;;;;;;5045830;28;20099;-77
2022/09/07 05:25:51;;;;;;;10.48;2.17;;;23.70;96.70;;;;;;5039758;28;20539;-77
2022/09/07 05:28:19;;;;;;;3.85;1.90;;;23.70;96.70;;;;;;5045469;28;20087;-78
2022/09/07 05:30:49;;;;;;;6.63;2.03;;;23.60;96.70;;;;;;5043704;28;20134;-79
2022/09/07 05:33:38;;;;;;;5.50;1.70;;;23.50;96.70;;;;;;5044167;28;20568;-77
2022/09/07 05:36:27;;;;;;;3.08;1.88;;;23.60;96.70;;;;;;5044634;28;20068;-77
2022/09/07 05:38:57;;;;;;;3.47;1.90;;;23.70;96.70;;;;;;5044937;28;20057;-78
2022/09/07 05:41:26;;;;;;;7.55;2.05;;;23.70;96.70;;;;;;5025799;28;20083;-77
2022/09/07 05:43:55;;;;;;;5.47;2.33;;;23.70;96.70;;;;;;5044649;28;20045;-77
2022/09/07 05:46:44;;;;;;;4.68;2.05;;;23.80;96.70;;;;;;5039818;28;20777;-77
2022/09/07 05:49:12;;;;;;;3.83;2.15;;;23.90;96.70;;;;;;5042119;28;20481;-77
2022/09/07 05:51:41;;;;;;;6.60;2.55;;;23.90;96.70;;;;;;5041914;28;20049;-78
2022/09/07 05:54:10;;;;;;;5.93;2.13;;;23.80;96.70;;;;;;5043133;28;20140;-78
2022/09/07 05:56:39;;;;;;;4.20;2.03;;;23.80;96.70;;;;;;5035959;28;20049;-77
2022/09/07 05:59:07;;;;;;;4.50;2.30;;;23.80;96.70;;;;;;5041550;28;20049;-77
2022/09/07 06:01:36;;;;;;;5.05;2.30;;;23.80;96.70;;;;;;5043178;28;20380;-78
2022/09/07 06:04:07;;;;;;;5.13;1.73;;;23.80;96.70;;;;;;5042006;28;20423;-77
2022/09/07 06:06:39;;;;;;;4.10;2.13;;;23.80;96.70;;;;;;5042184;28;20076;-77
2022/09/07 06:09:10;;;;;;;3.35;1.65;;;23.90;96.70;;;;;;5040569;28;20045;-77
2022/09/07 06:11:38;;;;;;;4.25;2.00;;;23.90;96.70;;;;;;5042640;28;20060;-77
2022/09/07 06:14:06;;;;;;;4.40;1.90;;;23.90;96.70;;;;;;5039759;28;20072;-79
2022/09/07 06:16:35;;;;;;;3.03;1.98;;;24.00;96.70;;;;;;5043049;28;20122;-78
2022/09/07 06:19:07;;;;;;;5.95;1.90;;;24.00;96.70;;;;;;5040743;28;20033;-78
2022/09/07 06:21:36;;;;;;;5.65;2.33;;;24.00;96.70;;;;;;5035672;28;20060;-78
2022/09/07 06:24:04;;;;;;;4.18;1.90;;;24.10;96.70;;;;;;5038608;28;20045;-78
2022/09/07 06:26:33;;;;;;;7.05;2.55;;;24.20;96.70;;;;;;5044558;28;20123;-77
2022/09/07 06:29:02;;;;;;;7.25;2.40;;;24.20;96.70;;;;;;5038775;28;20644;-77
2022/09/07 06:31:31;;;;;;;3.72;2.30;;;24.20;96.70;;;;;;5025035;28;20057;-77
2022/09/07 06:33:59;;;;;;;5.15;2.30;;;24.20;96.70;;;;;;5044639;28;20064;-77
2022/09/07 06:36:29;;;;;;;3.97;2.30;;;24.20;96.70;;;;;;5041869;28;21464;-78
2022/09/07 06:39:00;;;;;;;5.15;2.40;;;24.10;96.70;;;;;;5033268;28;20048;-77
2022/09/07 06:41:29;;;;;;;4.57;2.10;;;24.20;96.70;;;;;;5038364;28;20156;-77
2022/09/07 06:44:20;;;;;;;3.08;2.05;;;24.30;96.70;;;;;;5045993;28;20067;-78
2022/09/07 06:46:48;;;;;;;4.93;2.65;;;24.50;96.70;;;;;;5040656;28;20660;-77
2022/09/07 06:49:32;;;;;;;3.28;2.45;;;24.50;96.70;;;;;;5043136;28;20498;-78
2022/09/07 06:52:02;;;;;;;5.20;2.00;;;24.40;96.70;;;;;;5041067;28;20391;-77
2022/09/07 06:54:30;;;;;;;4.43;2.10;;;24.40;96.70;;;;;;5043686;28;20053;-77
2022/09/07 06:57:18;;;;;;;4.53;2.30;;;24.40;96.70;;;;;;5041071;28;20041;-77
2022/09/07 06:59:47;;;;;;;10.10;3.25;;;24.60;96.70;;;;;;5042304;28;20084;-77
2022/09/07 07:02:15;;;;;;;3.33;2.38;;;24.70;96.70;;;;;;5043035;28;20037;-77
2022/09/07 07:04:43;;;;;;;7.63;2.58;;;24.60;96.70;;;;;;5042222;28;20041;-79
2022/09/07 07:07:13;;;;;;;4.72;2.33;;;24.60;96.70;;;;;;5041725;28;20126;-78
2022/09/07 07:09:41;;;;;;;4.75;2.35;;;24.70;96.70;;;;;;5043655;28;20045;-77
2022/09/07 07:12:10;;;;;;;3.70;2.13;;;24.80;96.70;;;;;;5041904;28;20570;-78
2022/09/07 07:14:38;;;;;;;4.93;2.33;;;24.90;96.70;;;;;;5041994;28;20037;-78
2022/09/07 07:17:12;;;;;;;3.13;2.42;;;24.90;96.70;;;;;;5041148;28;20053;-78
2022/09/07 07:19:40;;;;;;;3.58;2.40;;;24.90;96.70;;;;;;5042468;28;20041;-77
2022/09/07 07:22:08;;;;;;;4.60;2.50;;;24.90;96.70;;;;;;5041395;28;20049;-78
2022/09/07 07:24:58;;;;;;;6.18;2.53;;;25.00;96.70;;;;;;5041894;28;20041;-77
2022/09/07 07:27:28;;;;;;;5.38;2.95;;;25.10;96.70;;;;;;5039263;28;20499;-77
2022/09/07 07:29:56;;;;;;;4.22;2.05;;;25.10;96.70;;;;;;5040793;28;20045;-78
2022/09/07 07:32:26;;;;;;;5.35;2.65;;;25.20;96.70;;;;;;5041686;28;20025;-78
2022/09/07 07:34:54;;;;;;;6.43;2.47;;;25.20;96.70;;;;;;5040334;28;20048;-77
2022/09/07 07:37:22;;;;;;;3.50;2.08;;;25.30;96.70;;;;;;5041543;28;20056;-77
2022/09/07 07:39:55;;;;;;;3.90;2.38;;;25.40;96.70;;;;;;5041534;28;20068;-77
2022/09/07 07:42:45;;;;;;;2.85;1.98;;;25.50;96.70;;;;;;5032266;28;20047;-78
2022/09/07 07:45:13;;;;;;;5.07;1.88;;;25.60;96.70;;;;;;5041310;28;20132;-77
2022/09/07 07:48:02;;;;;;;3.35;2.00;;;25.60;96.70;;;;;;5041643;28;20048;-77
2022/09/07 07:50:30;;;;;;;6.72;2.20;;;25.60;96.70;;;;;;5039508;28;20047;-78
2022/09/07 07:53:00;;;;;;;4.78;2.08;;;25.70;96.70;;;;;;5039969;28;20052;-77
2022/09/07 07:55:48;;;;;;;7.10;2.13;;;25.80;96.70;;;;;;5039621;28;20155;-78
2022/09/07 07:58:18;;;;;;;4.88;2.45;;;25.80;96.70;;;;;;5043154;28;20446;-78
2022/09/07 08:00:47;;;;;;;5.65;2.40;;;25.90;96.70;;;;;;5039696;28;20450;-78
2022/09/07 08:03:23;;;;;;;6.15;2.10;;;25.90;96.70;;;;;;5041383;28;20214;-78
2022/09/07 08:05:53;;;;;;;5.35;2.25;;;26.00;96.70;;;;;;5037381;28;20041;-78
2022/09/07 08:08:22;;;;;;;3.97;1.95;;;26.00;96.70;;;;;;5039675;28;20068;-77
2022/09/07 08:10:51;;;;;;;5.85;2.20;;;26.10;96.70;;;;;;5043722;28;20045;-77
2022/09/07 08:13:21;;;;;;;6.35;2.55;;;26.20;96.70;;;;;;5043827;28;20527;-77
2022/09/07 08:15:49;;;;;;;7.28;2.20;;;26.30;96.70;;;;;;5045438;28;20569;-78
2022/09/07 08:18:17;;;;;;;5.20;2.22;;;26.40;96.70;;;;;;5043423;28;20056;-78
2022/09/07 08:20:45;;;;;;;2.97;1.65;;;26.30;96.70;;;;;;5038471;28;20095;-78
2022/09/07 08:23:14;;;;;;;3.22;1.88;;;26.50;96.70;;;;;;5044638;28;20549;-78
2022/09/07 08:25:49;;;;;;;4.68;2.38;;;26.50;96.70;;;;;;5042209;28;20092;-78
2022/09/07 08:28:17;;;;;;;3.78;1.95;;;26.60;96.70;;;;;;5046080;28;20085;-80
2022/09/07 08:30:47;;;;;;;9.48;2.58;;;26.60;96.70;;;;;;5042222;28;20041;-78
2022/09/07 08:33:15;;;;;;;3.58;2.60;;;26.70;96.70;;;;;;5043519;28;20044;-77
2022/09/07 08:35:54;;;;;;;7.22;2.38;;;26.70;96.70;;;;;;5046952;28;20439;-78
2022/09/07 08:38:22;;;;;;;7.78;2.10;;;26.80;96.70;;;;;;5042866;28;20140;-77
2022/09/07 08:40:50;;;;;;;5.95;2.22;;;26.90;96.70;;;;;;5046987;28;20475;-79
2022/09/07 08:43:29;;;;;;;5.13;2.40;;;26.90;96.70;;;;;;5045528;28;20048;-78
2022/09/07 08:46:04;;;;;;;5.63;1.92;;;26.90;96.70;;;;;;5044817;28;21225;-77
2022/09/07 08:48:34;;;;;;;6.32;2.35;;;26.90;96.70;;;;;;5039278;28;20601;-77
2022/09/07 08:51:09;;;;;;;6.90;2.35;;;27.10;96.70;;;;;;5042283;28;20351;-78
2022/09/07 08:53:43;;;;;;;4.95;2.78;;;27.20;96.70;;;;;;5040374;28;20041;-78
2022/09/07 08:56:16;;;;;;;5.47;2.03;;;27.20;96.70;;;;;;5043186;28;20045;-78
2022/09/07 08:58:47;;;;;;;5.82;2.63;;;27.30;96.70;;;;;;5046146;28;20049;-78
2022/09/07 09:01:20;;;;;;;5.47;2.40;;;27.30;96.70;;;;;;5043698;28;20562;-78
2022/09/07 09:04:13;;;;;;;8.32;2.35;;;27.50;96.70;;;;;;5044945;28;20099;-77
2022/09/07 09:07:04;;;;;;;7.13;2.58;;;27.60;96.70;;;;;;5043443;28;20147;-78
2022/09/07 09:09:46;;;;;;;6.72;2.58;;;27.70;96.70;;;;;;5044413;28;20056;-78
2022/09/07 09:12:22;;;;;;;8.10;2.60;;;27.60;96.70;;;;;;5041534;28;20126;-77
2022/09/07 09:15:14;;;;;;;7.95;2.72;;;27.70;96.70;;;;;;5044691;28;20398;-78
2022/09/07 09:17:49;;;;;;;7.75;2.40;;;27.80;96.70;;;;;;5042985;28;20061;-78
2022/09/07 09:20:25;;;;;;;4.85;2.42;;;27.80;96.70;;;;;;5042886;28;20053;-78
2022/09/07 09:23:00;;;;;;;4.18;2.30;;;27.90;96.70;;;;;;5044082;28;20107;-78
2022/09/07 09:25:35;;;;;;;6.47;2.80;;;27.80;96.70;;;;;;5043335;28;20049;-78
2022/09/07 09:28:03;;;;;;;6.45;2.35;;;27.80;96.70;;;;;;5040355;28;20063;-78
2022/09/07 09:30:32;;;;;;;5.97;2.00;;;28.00;96.70;;;;;;5039645;28;20495;-78
2022/09/07 09:33:16;;;;;;;4.75;2.20;;;28.10;96.70;;;;;;5043728;28;20387;-78
2022/09/07 09:35:45;;;;;;;5.65;2.40;;;28.30;96.70;;;;;;5037462;28;20729;-79
2022/09/07 09:38:28;;;;;;;3.95;1.95;;;28.40;96.70;;;;;;5043699;28;20049;-78
2022/09/07 09:40:59;;;;;;;7.60;2.30;;;28.40;96.70;;;;;;5043025;28;20451;-78
2022/09/07 09:43:38;;;;;;;4.65;2.10;;;28.50;96.70;;;;;;5044566;28;20384;-77
2022/09/07 09:46:18;;;;;;;5.63;2.10;;;28.50;96.70;;;;;;5043281;28;20056;-78
2022/09/07 09:48:58;;;;;;;5.43;2.00;;;28.40;96.70;;;;;;5041073;28;20049;-78
2022/09/07 09:51:30;;;;;;;6.63;2.15;;;28.40;96.70;;;;;;5038588;28;20068;-79
2022/09/07 09:54:23;;;;;;;3.97;2.00;;;28.60;96.70;;;;;;5037572;28;20045;-78
2022/09/07 09:56:52;;;;;;;4.88;1.95;;;28.90;96.70;;;;;;5048785;28;20107;-78
2022/09/07 09:59:23;;;;;;;8.68;2.17;;;29.10;96.70;;;;;;5043526;28;20087;-78
2022/09/07 10:02:27;;;;;;;6.70;2.28;;;29.00;96.70;;;;;;5040451;28;20045;-78
2022/09/07 10:05:29;;;;;;;5.20;1.90;;;29.10;96.70;;;;;;5043663;28;20095;-78
2022/09/07 10:07:57;;;;;;;4.35;2.20;;;29.20;96.70;;;;;;5038597;28;20556;-78
2022/09/07 10:10:27;;;;;;;6.80;1.85;;;29.30;96.70;;;;;;5042694;28;20045;-78
2022/09/07 10:12:56;;;;;;;6.03;2.10;;;29.30;96.70;;;;;;5023441;28;20495;-78
2022/09/07 10:15:33;;;;;;;8.52;2.03;;;29.40;96.70;;;;;;5043749;28;20047;-78
2022/09/07 10:18:21;;;;;;;5.07;2.10;;;29.60;96.70;;;;;;4999024;28;20137;-78
2022/09/07 10:20:51;;;;;;;5.10;2.03;;;29.80;96.70;;;;;;4987814;28;20077;-78
2022/09/07 10:23:22;;;;;;;4.03;1.77;;;29.90;96.70;;;;;;4984204;28;20452;-78
2022/09/07 10:25:51;;;;;;;4.00;1.83;;;30.00;96.70;;;;;;4999367;28;20455;-78
2022/09/07 10:28:21;;;;;;;5.28;2.15;;;29.90;96.70;;;;;;4971470;28;20050;-78
2022/09/07 10:31:09;;;;;;;5.57;2.47;;;29.90;96.70;;;;;;4985427;28;20050;-78
2022/09/07 10:33:51;;;;;;;9.02;2.17;;;30.10;96.70;;;;;;4998957;28;20519;-78
2022/09/07 10:36:50;;;;;;;7.15;2.00;;;30.30;96.70;;;;;;4982298;28;20209;-78
2022/09/07 10:39:24;;;;;;;8.77;2.55;;;30.60;96.70;;;;;;4993869;28;20173;-78
2022/09/07 10:42:00;;;;;;;8.88;2.55;;;30.90;96.70;;;;;;4968231;28;20057;-79
2022/09/07 10:44:39;;;;;;;;;;;30.90;96.70;;;;;;5000244;28;20053;-78
2022/09/07 10:47:18;;;;;;;8.70;2.60;;;30.90;96.70;;;;;;4984716;28;19925;-78
2022/09/07 10:49:52;;;;;;;7.97;2.75;;;30.90;96.70;;;;;;5018473;28;20048;-78
2022/09/07 10:52:47;;;;;;;7.22;2.30;;;30.90;96.70;;;;;;5041110;28;20045;-78
2022/09/07 10:55:22;;;;;;;8.32;2.20;;;30.80;96.70;;;;;;5039660;28;20084;-78
2022/09/07 10:58:06;;;;;;;6.70;2.50;;;30.90;96.70;;;;;;5036831;28;20085;-78
2022/09/07 11:00:41;;;;;;;8.18;1.95;;;31.00;96.70;;;;;;5044106;28;20043;-78
2022/09/07 11:03:32;;;;;;;7.80;2.92;;;31.10;96.70;;;;;;5038267;28;20049;-77
2022/09/07 11:06:13;;;;;;;9.35;1.90;;;31.20;96.70;;;;;;5035989;28;20049;-78
2022/09/07 11:09:10;;;;;;;6.78;2.67;;;31.10;96.70;;;;;;5035407;28;20049;-78
2022/09/07 11:11:50;;;;;;;7.13;1.88;;;30.90;96.70;;;;;;5034080;28;20057;-78
2022/09/07 11:14:41;;;;;;;6.03;1.95;;;30.90;96.70;;;;;;5041848;28;20045;-78
2022/09/07 11:17:16;;;;;;;9.05;1.63;;;31.20;96.70;;;;;;5037954;28;20089;-78
2022/09/07 11:19:50;;;;;;;9.10;2.45;;;31.10;96.70;;;;;;5038749;28;20067;-78
2022/09/07 11:22:30;;;;;;;5.10;1.88;;;31.20;96.70;;;;;;5038925;28;20125;-78
2022/09/07 11:25:11;;;;;;;6.68;1.98;;;31.40;96.70;;;;;;5024204;28;20134;-77
2022/09/07 11:28:07;;;;;;;7.65;2.53;;;31.70;96.70;;;;;;5041887;28;20049;-78
2022/09/07 11:30:43;;;;;;;6.57;2.05;;;32.00;96.70;;;;;;5032422;28;20041;-78
2022/09/07 11:33:19;;;;;;;7.50;2.10;;;32.10;96.70;;;;;;5048310;28;20049;-77
2022/09/07 11:35:53;;;;;;;9.27;2.00;;;32.10;96.70;;;;;;5041034;28;20167;-78
2022/09/07 11:38:29;;;;;;;6.72;1.90;;;32.30;96.70;;;;;;5043341;28;20140;-78
2022/09/07 11:41:14;;;;;;;5.80;2.10;;;32.20;96.70;;;;;;5034169;28;20546;-78
2022/09/07 11:43:46;;;;;;;5.80;1.90;;;32.10;96.70;;;;;;5042789;28;20138;-78
2022/09/07 11:46:21;;;;;;;5.80;1.88;;;32.10;96.70;;;;;;5043900;28;20041;-78
2022/09/07 11:48:54;;;;;;;6.43;2.03;;;32.30;96.70;;;;;;5039591;28;20052;-78
2022/09/07 11:51:29;;;;;;;6.00;1.77;;;32.60;96.70;;;;;;5040668;28;20044;-78
2022/09/07 11:54:16;;;;;;;8.40;2.33;;;32.90;96.70;;;;;;5039868;28;20106;-77
2022/09/07 11:56:53;;;;;;;7.47;2.03;;;33.00;96.70;;;;;;5040536;28;20288;-78
2022/09/07 11:59:35;;;;;;;7.10;2.10;;;33.10;96.70;;;;;;5044624;28;20132;-78
2022/09/07 12:02:30;;;;;;;5.95;1.90;;;33.20;96.70;;;;;;5045847;28;20152;-78
2022/09/07 12:05:30;;;;;;;8.73;2.50;;;33.40;96.70;;;;;;5043424;28;20045;-78
2022/09/07 12:08:24;;;;;;;7.80;1.55;;;33.40;96.70;;;;;;5044178;28;20060;-78
2022/09/07 12:11:16;;;;;;;5.28;2.05;;;33.00;96.70;;;;;;5044106;28;20144;-78
2022/09/07 12:14:11;;;;;;;6.25;1.73;;;32.70;96.70;;;;;;5044796;28;20045;-77
2022/09/07 12:16:57;;;;;;;6.28;1.60;;;33.00;96.70;;;;;;5039725;28;20064;-78
2022/09/07 12:19:26;;;;;;;6.03;1.98;;;33.20;96.70;;;;;;5045198;28;20048;-78
2022/09/07 12:21:58;;;;;;;9.50;2.33;;;33.30;96.70;;;;;;5045374;28;20111;-78
2022/09/07 12:24:38;;;;;;;6.82;2.08;;;33.20;96.70;;;;;;5044685;28;20037;-78
2022/09/07 12:27:31;;;;;;;6.18;2.15;;;32.80;96.70;;;;;;5045332;28;20533;-78
2022/09/07 12:30:47;;;;;;;9.60;2.53;;;32.90;96.70;;;;;;5045478;28;20128;-78
2022/09/07 12:33:33;;;;;;;6.82;2.10;;;32.50;96.70;;;;;;5044735;28;20732;-78
2022/09/07 12:36:22;;;;;;;11.35;2.50;;;32.30;96.70;;;;;;5057406;28;20048;-77
2022/09/07 12:39:11;;;;;;;6.55;2.38;;;32.20;96.70;;;;;;5040466;28;20041;-78
2022/09/07 12:41:45;;;;;;;7.80;1.73;;;32.40;96.70;;;;;;5043134;28;20069;-78
2022/09/07 12:44:17;;;;;;;8.38;2.25;;;32.40;96.70;;;;;;5044715;28;20526;-78
2022/09/07 12:46:57;;;;;;;6.93;1.77;;;32.50;96.70;;;;;;5044127;28;20126;-78
2022/09/07 12:49:46;;;;;;;9.85;2.30;;;32.70;96.70;;;;;;5044645;28;20064;-78
2022/09/07 12:52:46;;;;;;;10.02;2.20;;;32.80;96.70;;;;;;5043733;28;20052;-78
2022/09/07 12:55:51;;;;;;;5.40;1.92;;;33.10;96.70;;;;;;5040885;28;20049;-78
2022/09/07 12:58:50;;;;;;;7.93;1.92;;;33.30;96.70;;;;;;5033796;28;20474;-78
2022/09/07 13:01:32;;;;;;;5.57;1.90;;;33.50;96.70;;;;;;5044598;28;20538;-78
2022/09/07 13:04:35;;;;;;;6.10;2.10;;;33.50;96.70;;;;;;5042106;28;20482;-78
2022/09/07 13:07:39;;;;;;;5.45;2.00;;;33.40;96.70;;;;;;5035170;28;20431;-78
2022/09/07 13:10:25;;;;;;;7.47;1.75;;;33.10;96.70;;;;;;5044247;28;20060;-77
2022/09/07 13:13:01;;;;;;;7.47;2.17;;;33.10;96.70;;;;;;5040186;28;20060;-78
2022/09/07 13:15:42;;;;;;;6.87;2.13;;;33.40;96.70;;;;;;5043113;28;20041;-83
2022/09/07 13:18:27;;;;;;;5.32;1.67;;;33.70;96.70;;;;;;5046622;28;20049;-78
2022/09/07 13:21:28;;;;;;;5.15;1.90;;;33.90;96.70;;;;;;5035025;28;20060;-78
2022/09/07 13:24:46;;;;;;;5.18;1.85;;;34.10;96.70;;;;;;5040286;28;20053;-80
2022/09/07 13:27:45;;;;;;;5.88;2.03;;;34.40;96.70;;;;;;4985261;28;20041;-79
2022/09/07 13:30:28;;;;;;;7.13;1.90;;;34.60;96.70;;;;;;5041405;28;20080;-81